Time;durP1;ratioP1;P1;durP2;ratioP2;P2;SDS_P1;SDS_P2;PMS_P1;PMS_P2;Temp;Humidity;BMP_temperature;BMP_pressure;BME280_temperature;BME280_humidity;BME280_pressure;Samples;Min_cycle;Max_cycle;Signal;HPM_P1;HPM_P2
2022/02/25 00:02:03;;;;;;;;;;;;;;;15.70;48.81;100272.19;4939375;28;128047;-69
2022/02/25 00:04:29;;;;;;;;;;;;;;;15.70;48.81;100276.84;4935440;28;124037;-63
2022/02/25 00:06:55;;;;;;;;;;;;;;;15.69;48.66;100294.25;4920301;28;110225;-68
2022/02/25 00:09:21;;;;;;;;;;;;;;;15.67;48.72;100299.97;4920210;28;122205;-69
2022/02/25 00:11:47;;;;;;;;;;;;;;;15.66;48.91;100300.28;4919440;28;128990;-69
2022/02/25 00:14:13;;;;;;;;;;;;;;;15.63;48.91;100301.66;4920073;28;99206;-67
2022/02/25 00:16:39;;;;;;;;;;;;;;;15.63;48.85;100309.00;4920582;28;97805;-69
2022/02/25 00:19:05;;;;;;;;;;;;;;;15.59;48.50;100308.81;4919240;28;122386;-69
2022/02/25 00:21:31;;;;;;;;;;;;;;;15.60;48.68;100317.75;4919278;28;127230;-63
2022/02/25 00:23:57;;;;;;;;;;;;;;;15.57;48.90;100330.06;4919841;28;127094;-63
2022/02/25 00:26:23;;;;;;;;;;;;;;;15.56;48.99;100327.63;4919387;28;125944;-62
2022/02/25 00:28:49;;;;;;;;;;;;;;;15.54;49.09;100330.66;4919943;28;97810;-68
2022/02/25 00:31:15;;;;;;;;;;;;;;;15.53;48.80;100339.94;4920464;28;98477;-67
2022/02/25 00:33:41;;;;;;;;;;;;;;;15.52;49.02;100342.94;4930638;28;98145;-68
2022/02/25 00:36:08;;;;;;;;;;;;;;;15.50;48.86;100345.16;4938851;28;128007;-69
2022/02/25 00:38:33;;;;;;;;;;;;;;;15.49;48.94;100355.22;4939694;28;97930;-69
2022/02/25 00:40:59;;;;;;;;;;;;;;;15.45;49.03;100341.44;4938086;28;125539;-63
2022/02/25 00:43:25;;;;;;;;;;;;;;;15.45;48.64;100351.50;4939316;28;115251;-63
2022/02/25 00:45:51;;;;;;;;;;;;;;;15.43;49.14;100353.69;4938623;28;110895;-68
2022/02/25 00:48:17;;;;;;;;;;;;;;;15.41;48.72;100358.66;4938847;28;123252;-68
2022/02/25 00:50:44;;;;;;;;;;;;;;;15.39;49.00;100369.00;4938798;28;127027;-69
2022/02/25 00:53:10;;;;;;;;;;;;;;;15.38;48.90;100370.91;4921221;28;98136;-68
2022/02/25 00:55:36;;;;;;;;;;;;;;;15.36;49.14;100367.66;4920413;28;117345;-67
2022/02/25 00:58:02;;;;;;;;;;;;;;;15.34;49.01;100366.38;4920692;28;123123;-69
2022/02/25 01:00:28;;;;;;;;;;;;;;;15.33;48.79;100365.59;4939087;28;98509;-63
2022/02/25 01:02:54;;;;;;;;;;;;;;;15.31;48.66;100370.50;4921139;28;99139;-68
2022/02/25 01:05:20;;;;;;;;;;;;;;;15.31;49.09;100373.22;4918831;28;98020;-63
2022/02/25 01:07:46;;;;;;;;;;;;;;;15.30;49.13;100377.03;4919392;28;122721;-63
2022/02/25 01:10:13;;;;;;;;;;;;;;;15.29;49.24;100380.03;4899961;28;129175;-63
2022/02/25 01:12:39;;;;;;;;;;;;;;;15.28;48.64;100383.88;4901717;28;123494;-63
2022/02/25 01:15:05;;;;;;;;;;;;;;;15.26;48.96;100386.91;4919625;28;98020;-65
2022/02/25 01:17:31;;;;;;;;;;;;;;;15.27;48.95;100393.13;4918599;28;120393;-63
2022/02/25 01:19:58;;;;;;;;;;;;;;;15.26;49.20;100399.66;4918793;28;97702;-69
2022/02/25 01:22:24;;;;;;;;;;;;;;;15.24;48.91;100397.22;4923991;28;122698;-68
2022/02/25 01:24:50;;;;;;;;;;;;;;;15.22;49.10;100400.25;4938930;28;122572;-63
2022/02/25 01:27:16;;;;;;;;;;;;;;;15.22;49.02;100411.13;4939123;28;99412;-63
2022/02/25 01:29:42;;;;;;;;;;;;;;;15.21;49.33;100414.16;4938936;28;98964;-69
2022/02/25 01:32:08;;;;;;;;;;;;;;;15.20;49.16;100416.03;4920159;28;128129;-63
2022/02/25 01:34:34;;;;;;;;;;;;;;;15.19;49.17;100422.56;4937733;28;125002;-64
2022/02/25 01:37:00;;;;;;;;;;;;;;;15.18;49.02;100434.53;4935494;28;123745;-65
2022/02/25 01:39:26;;;;;;;;;;;;;;;15.18;48.83;100429.13;4918113;28;129669;-69
2022/02/25 01:41:52;;;;;;;;;;;;;;;15.16;49.05;100431.31;4918437;28;128678;-69
2022/02/25 01:44:19;;;;;;;;;;;;;;;15.16;48.79;100431.31;4918789;28;98149;-63
2022/02/25 01:46:47;;;;;;;;;;;;;;;15.15;49.05;100437.84;4932069;28;122065;-69
2022/02/25 01:49:13;;;;;;;;;;;;;;;15.13;48.85;100437.34;4919434;28;98343;-63
2022/02/25 01:51:39;;;;;;;;;;;;;;;15.13;48.80;100450.09;4920409;28;99112;-66
2022/02/25 01:54:05;;;;;;;;;;;;;;;15.12;48.87;100437.63;4900437;28;120131;-63
2022/02/25 01:56:31;;;;;;;;;;;;;;;15.10;49.04;100440.66;4901620;28;101415;-69
2022/02/25 01:58:57;;;;;;;;;;;;;;;15.08;49.08;100448.28;4930942;28;98071;-64
2022/02/25 02:01:23;;;;;;;;;;;;;;;15.06;49.08;100453.22;4937188;28;128332;-68
2022/02/25 02:03:52;;;;;;;;;;;;;;;15.05;48.84;100448.91;4938085;28;97926;-69
2022/02/25 02:06:18;;;;;;;;;;;;;;;15.05;49.00;100453.50;4938011;28;98268;-69
2022/02/25 02:08:44;;;;;;;;;;;;;;;15.04;48.97;100446.47;4937931;28;123536;-69
2022/02/25 02:11:10;;;;;;;;;;;;;;;15.03;48.67;100451.09;4938200;28;128602;-68
2022/02/25 02:13:36;;;;;;;;;;;;;;;15.02;48.86;100464.97;4935741;28;115849;-63
2022/02/25 02:16:02;;;;;;;;;;;;;;;14.99;48.81;100466.38;4937984;28;122652;-69
2022/02/25 02:18:27;;;;;;;;;;;;;;;14.98;48.96;100475.63;4923726;28;103929;-63
2022/02/25 02:20:53;;;;;;;;;;;;;;;14.96;48.60;100477.81;4937605;28;127504;-63
2022/02/25 02:23:19;;;;;;;;;;;;;;;14.94;48.98;100491.69;4939439;28;128137;-68
2022/02/25 02:25:45;;;;;;;;;;;;;;;14.92;48.79;100493.88;4941564;28;123739;-64
2022/02/25 02:28:21;;;;;;;;;;;;;;;14.91;49.05;100489.56;4940158;28;127306;-69
2022/02/25 02:30:48;;;;;;;;;;;;;;;14.90;48.95;100489.84;4924907;28;98554;-63
2022/02/25 02:33:14;;;;;;;;;;;;;;;14.88;48.86;100498.28;4923486;28;98163;-68
2022/02/25 02:35:40;;;;;;;;;;;;;;;14.87;49.06;100495.88;4939751;28;122152;-63
2022/02/25 02:38:06;;;;;;;;;;;;;;;14.85;48.94;100501.56;4940085;28;98347;-68
2022/02/25 02:40:32;;;;;;;;;;;;;;;14.85;48.88;100495.34;4940806;28;128264;-63
2022/02/25 02:42:58;;;;;;;;;;;;;;;14.84;48.92;100508.09;4911957;28;127384;-63
2022/02/25 02:45:24;;;;;;;;;;;;;;;14.83;48.90;100511.94;4902457;28;123023;-69
2022/02/25 02:47:50;;;;;;;;;;;;;;;14.82;48.64;100514.94;4932543;28;106009;-63
2022/02/25 02:50:16;;;;;;;;;;;;;;;14.80;48.54;100523.38;4940530;28;126893;-63
2022/02/25 02:52:42;;;;;;;;;;;;;;;14.79;48.50;100519.03;4922644;28;98026;-69
2022/02/25 02:55:08;;;;;;;;;;;;;;;14.78;48.92;100519.34;4922040;28;122244;-69
2022/02/25 02:57:33;;;;;;;;;;;;;;;14.76;48.75;100530.47;4941209;28;106100;-63
2022/02/25 02:59:59;;;;;;;;;;;;;;;14.75;48.80;100528.06;4922003;28;105681;-68
2022/02/25 03:02:25;;;;;;;;;;;;;;;14.73;48.90;100539.19;4919999;28;126415;-63
2022/02/25 03:04:51;;;;;;;;;;;;;;;14.71;48.72;100536.00;4920446;28;122465;-63
2022/02/25 03:07:17;;;;;;;;;;;;;;;14.70;48.41;100540.63;4920426;28;127622;-68
2022/02/25 03:09:43;;;;;;;;;;;;;;;14.69;48.92;100547.13;4919669;28;126145;-67
2022/02/25 03:12:09;;;;;;;;;;;;;;;14.67;48.92;100554.75;4920354;28;127992;-63
2022/02/25 03:14:36;;;;;;;;;;;;;;;14.66;48.70;100553.16;4922958;28;108600;-68
2022/02/25 03:17:02;;;;;;;;;;;;;;;14.65;48.61;100558.84;4940805;28;98330;-63
2022/02/25 03:19:28;;;;;;;;;;;;;;;14.63;48.62;100567.28;4937782;28;108791;-63
2022/02/25 03:21:54;;;;;;;;;;;;;;;14.63;49.00;100566.50;4938962;28;98672;-68
2022/02/25 03:24:20;;;;;;;;;;;;;;;14.60;48.87;100561.63;4921367;28;97893;-68
2022/02/25 03:26:46;;;;;;;;;;;;;;;14.59;48.86;100570.88;4919947;28;128627;-63
2022/02/25 03:29:12;;;;;;;;;;;;;;;14.58;48.69;100580.94;4920610;28;98345;-69
2022/02/25 03:31:38;;;;;;;;;;;;;;;14.58;48.97;100585.53;4887340;28;100169;-63
2022/02/25 03:34:05;;;;;;;;;;;;;;;14.55;48.73;100578.78;4904273;28;122336;-63
2022/02/25 03:36:31;;;;;;;;;;;;;;;14.54;48.62;100585.31;4926484;28;98741;-64
2022/02/25 03:38:57;;;;;;;;;;;;;;;14.53;48.58;100591.81;4902084;28;127230;-63
2022/02/25 03:41:23;;;;;;;;;;;;;;;14.51;48.71;100598.66;4886001;28;128484;-63
2022/02/25 03:43:49;;;;;;;;;;;;;;;14.51;48.87;100601.38;4929635;28;119580;-68
2022/02/25 03:46:14;;;;;;;;;;;;;;;14.49;48.58;100612.50;4912033;28;98573;-68
2022/02/25 03:48:40;;;;;;;;;;;;;;;14.49;48.64;100617.91;4919743;28;127321;-69
2022/02/25 03:51:06;;;;;;;;;;;;;;;14.48;48.66;100611.66;4920147;28;128769;-69
2022/02/25 03:53:32;;;;;;;;;;;;;;;14.48;48.92;100619.78;4902993;28;122758;-68
2022/02/25 03:55:58;;;;;;;;;;;;;;;14.48;48.88;100625.22;4932210;28;128121;-63
2022/02/25 03:58:24;;;;;;;;;;;;;;;14.48;48.88;100619.00;4920105;28;128456;-68
2022/02/25 04:00:50;;;;;;;;;;;;;;;14.48;48.89;100632.53;4920365;28;126519;-67
2022/02/25 04:03:16;;;;;;;;;;;;;;;14.47;48.57;100637.16;4941005;28;98133;-69
2022/02/25 04:05:42;;;;;;;;;;;;;;;14.47;48.70;100639.88;4938148;28;127651;-68
2022/02/25 04:08:08;;;;;;;;;;;;;;;14.47;48.64;100641.78;4939273;28;126920;-64
2022/02/25 04:10:35;;;;;;;;;;;;;;;14.46;48.81;100643.69;4939862;28;98309;-63
2022/02/25 04:13:01;;;;;;;;;;;;;;;14.45;48.90;100649.38;4922142;28;98095;-67
2022/02/25 04:15:27;;;;;;;;;;;;;;;14.43;48.73;100646.97;4901948;28;118857;-64
2022/02/25 04:17:53;;;;;;;;;;;;;;;14.43;48.77;100651.59;4904528;28;98617;-64
2022/02/25 04:20:19;;;;;;;;;;;;;;;14.41;48.64;100654.59;4918937;28;127214;-69
2022/02/25 04:22:45;;;;;;;;;;;;;;;14.41;48.64;100656.50;4919812;28;123353;-63
2022/02/25 04:25:11;;;;;;;;;;;;;;;14.39;48.37;100654.06;4917868;28;125978;-69
2022/02/25 04:27:37;;;;;;;;;;;;;;;14.39;48.77;100655.97;4919560;28;125037;-70
2022/02/25 04:30:03;;;;;;;;;;;;;;;14.37;48.73;100655.44;4919047;28;128414;-69
2022/02/25 04:32:29;;;;;;;;;;;;;;;14.36;48.69;100660.06;4920196;28;97897;-68
2022/02/25 04:34:55;;;;;;;;;;;;;;;14.35;48.49;100663.88;4918449;28;127876;-63
2022/02/25 04:37:21;;;;;;;;;;;;;;;14.34;48.90;100666.88;4919399;28;128708;-64
2022/02/25 04:39:47;;;;;;;;;;;;;;;14.33;48.65;100666.06;4924926;28;126980;-69
2022/02/25 04:42:13;;;;;;;;;;;;;;;14.32;48.44;100663.66;4934869;28;123075;-69
2022/02/25 04:44:39;;;;;;;;;;;;;;;14.30;48.81;100665.81;4917886;28;127348;-63
2022/02/25 04:47:05;;;;;;;;;;;;;;;14.28;48.38;100668.84;4923306;28;98466;-69
2022/02/25 04:49:31;;;;;;;;;;;;;;;14.27;48.79;100678.06;4938451;28;99133;-68
2022/02/25 04:51:57;;;;;;;;;;;;;;;14.26;48.50;100684.56;4939139;28;97980;-63
2022/02/25 04:54:23;;;;;;;;;;;;;;;14.26;48.78;100681.84;4938325;28;128078;-69
2022/02/25 04:56:48;;;;;;;;;;;;;;;14.24;48.75;100686.78;4938821;28;127732;-64
2022/02/25 04:59:14;;;;;;;;;;;;;;;14.23;48.46;100696.00;4927418;28;128343;-63
2022/02/25 05:01:40;;;;;;;;;;;;;;;14.20;48.44;100697.38;4919234;28;122838;-61
2022/02/25 05:04:06;;;;;;;;;;;;;;;14.20;48.77;100699.28;4900809;28;125595;-64
2022/02/25 05:06:33;;;;;;;;;;;;;;;14.20;48.61;100707.41;4919650;28;128491;-64
2022/02/25 05:08:59;;;;;;;;;;;;;;;14.19;48.40;100706.59;4933467;28;98725;-64
2022/02/25 05:11:25;;;;;;;;;;;;;;;14.18;48.32;100707.69;4938176;28;122061;-68
2022/02/25 05:13:51;;;;;;;;;;;;;;;14.18;48.34;100715.00;4937912;28;102255;-64
2022/02/25 05:21:46;;;;;;;;;;;;;;;14.15;48.49;100726.44;4889993;28;98397;-70
2022/02/25 05:24:12;;;;;;;;;;;;;;;14.14;48.44;100738.34;4938610;28;118736;-63
2022/02/25 05:26:38;;;;;;;;;;;;;;;14.13;48.29;100740.25;4936890;28;127637;-69
2022/02/25 05:29:04;;;;;;;;;;;;;;;14.11;48.66;100742.47;4924029;28;127594;-63
2022/02/25 05:31:30;;;;;;;;;;;;;;;14.11;48.45;100750.59;4900043;28;120715;-68
2022/02/25 05:33:56;;;;;;;;;;;;;;;14.10;48.28;100764.41;4918624;28;100713;-66
2022/02/25 05:36:22;;;;;;;;;;;;;;;14.08;48.30;100753.06;4934056;28;128368;-64
2022/02/25 05:38:49;;;;;;;;;;;;;;;14.07;48.48;100762.25;4918528;28;99292;-64
2022/02/25 05:41:16;;;;;;;;;;;;;;;14.06;48.26;100768.78;4915814;28;98478;-68
2022/02/25 05:43:42;;;;;;;;;;;;;;;14.06;48.64;100783.13;4935320;28;98276;-69
2022/02/25 05:46:08;;;;;;;;;;;;;;;14.05;48.44;100783.44;4924632;28;98326;-63
2022/02/25 05:48:34;;;;;;;;;;;;;;;14.04;48.51;100788.06;4916692;28;109273;-69
2022/02/25 05:51:00;;;;;;;;;;;;;;;14.04;48.41;100792.66;4933531;28;122865;-64
2022/02/25 05:53:26;;;;;;;;;;;;;;;14.03;48.58;100791.03;4919591;28;127618;-63
2022/02/25 05:55:52;;;;;;;;;;;;;;;14.03;48.14;100786.44;4896892;28;128824;-68
2022/02/25 05:58:18;;;;;;;;;;;;;;;14.03;48.23;100805.41;4918504;28;127684;-69
2022/02/25 06:00:44;;;;;;;;;;;;;;;14.03;48.63;100802.69;4925014;28;111967;-68
2022/02/25 06:03:10;;;;;;;;;;;;;;;14.03;48.37;100810.84;4929111;28;114034;-63
2022/02/25 06:05:35;;;;;;;;;;;;;;;14.04;48.35;100811.63;4936530;28;128982;-64
2022/02/25 06:08:01;;;;;;;;;;;;;;;14.05;48.56;100814.06;4939234;28;98683;-64
2022/02/25 06:10:27;;;;;;;;;;;;;;;14.07;48.48;100811.06;4905616;28;121214;-68
2022/02/25 06:12:53;;;;;;;;;;;;;;;14.07;48.57;100817.31;4919003;28;98850;-64
2022/02/25 06:15:19;;;;;;;;;;;;;;;14.08;48.10;100815.41;4922336;28;109961;-63
2022/02/25 06:17:49;;;;;;;;;;;;;;;14.10;48.25;100824.03;4917209;28;126924;-63
2022/02/25 06:20:16;;;;;;;;;;;;;;;14.10;48.29;100824.84;4899517;28;98146;-61
2022/02/25 06:22:42;;;;;;;;;;;;;;;14.09;48.03;100823.25;4925200;28;97979;-67
2022/02/25 06:25:08;;;;;;;;;;;;;;;14.10;48.08;100832.19;4918658;28;98646;-68
2022/02/25 06:27:35;;;;;;;;;;;;;;;14.09;47.97;100838.69;4930074;28;126526;-63
2022/02/25 06:30:01;;;;;;;;;;;;;;;14.13;48.04;100837.03;4911027;28;111705;-67
2022/02/25 06:32:27;;;;;;;;;;;;;;;14.15;47.96;100845.72;4919266;28;98568;-68
2022/02/25 06:34:53;;;;;;;;;;;;;;;14.16;48.06;100844.63;4924530;28;128954;-63
2022/02/25 06:37:20;;;;;;;;;;;;;;;14.17;48.28;100852.47;4919166;28;128111;-68
2022/02/25 06:39:46;;;;;;;;;;;;;;;14.20;47.87;100859.22;4917819;28;99205;-67
2022/02/25 06:42:11;;;;;;;;;;;;;;;14.25;48.21;100857.28;4919826;28;126460;-68
2022/02/25 06:44:37;;;;;;;;;;;;;;;14.38;47.73;100858.56;4918643;28;127621;-68
2022/02/25 06:47:03;;;;;;;;;;;;;;;14.46;47.59;100855.25;4933436;28;128713;-63
2022/02/25 06:49:30;;;;;;;;;;;;;;;14.52;47.79;100852.50;4917071;28;121249;-63
2022/02/25 06:51:55;;;;;;;;;;;;;;;14.51;47.86;100872.59;4918721;28;99109;-63
2022/02/25 06:54:21;;;;;;;;;;;;;;;14.49;47.76;100870.97;4916181;28;127436;-68
2022/02/25 06:56:47;;;;;;;;;;;;;;;14.49;47.85;100868.25;4917916;28;128225;-68
2022/02/25 06:59:13;;;;;;;;;;;;;;;14.52;48.15;100871.50;4917893;28;108520;-63
2022/02/25 07:01:39;;;;;;;;;;;;;;;14.53;47.91;100871.19;4934161;28;129178;-68
2022/02/25 07:04:05;;;;;;;;;;;;;;;14.56;47.90;100877.97;4916947;28;121811;-63
2022/02/25 07:06:33;;;;;;;;;;;;;;;14.58;48.26;100876.59;4917441;28;110787;-69
2022/02/25 07:08:59;;;;;;;;;;;;;;;14.62;48.00;100877.66;4916875;28;97779;-68
2022/02/25 07:11:25;;;;;;;;;;;;;;;14.64;48.16;100880.88;4917611;28;98689;-68
2022/02/25 07:13:51;;;;;;;;;;;;;;;14.69;47.76;100886.25;4899503;28;127195;-68
2022/02/25 07:16:17;;;;;;;;;;;;;;;14.75;47.79;100888.94;4916302;28;126738;-68
2022/02/25 07:18:43;;;;;;;;;;;;;;;14.81;48.11;100893.22;4925011;28;98121;-63
2022/02/25 07:21:11;;;;;;;;;;;;;;;14.87;47.93;100882.03;4916456;28;128171;-63
2022/02/25 07:23:39;;;;;;;;;;;;;;;14.95;48.06;100894.19;4921330;28;99278;-63
2022/02/25 07:26:06;;;;;;;;;;;;;;;15.04;47.78;100897.88;4907170;28;98996;-68
2022/02/25 07:28:32;;;;;;;;;;;;;;;15.15;47.78;100901.31;4929955;28;98073;-63
2022/02/25 07:30:58;;;;;;;;;;;;;;;15.25;47.77;100903.94;4934137;28;128945;-63
2022/02/25 07:33:24;;;;;;;;;;;;;;;15.36;47.66;100904.63;4922676;28;127819;-68
2022/02/25 07:35:50;;;;;;;;;;;;;;;15.46;47.62;100899.06;4916365;28;127726;-67
2022/02/25 07:38:16;;;;;;;;;;;;;;;15.58;47.36;100906.81;4916003;28;98134;-63
2022/02/25 07:40:42;;;;;;;;;;;;;;;15.70;47.36;100909.97;4915933;28;104061;-63
2022/02/25 07:43:08;;;;;;;;;;;;;;;15.82;46.96;100918.50;4929296;28;104635;-68
2022/02/25 07:45:34;;;;;;;;;;;;;;;15.98;46.87;100912.88;4934833;28;112471;-63
2022/02/25 07:48:00;;;;;;;;;;;;;;;16.12;46.92;100909.13;4937175;28;98564;-63
2022/02/25 07:50:27;;;;;;;;;;;;;;;16.30;46.85;100909.41;4915939;28;128038;-68
2022/02/25 07:52:53;;;;;;;;;;;;;;;16.49;46.65;100915.66;4927345;28;98727;-68
2022/02/25 07:55:19;;;;;;;;;;;;;;;16.66;46.37;100921.38;4903541;28;100958;-63
2022/02/25 07:57:45;;;;;;;;;;;;;;;16.88;46.39;100917.22;4921875;28;98562;-64
2022/02/25 08:00:15;;;;;;;;;;;;;;;17.10;46.06;100936.47;4916630;28;99096;-63
2022/02/25 08:02:42;;;;;;;;;;;;;;;17.37;45.82;100929.41;4917407;28;100063;-67
2022/02/25 08:05:08;;;;;;;;;;;;;;;17.64;45.76;100934.06;4916555;28;98580;-63
2022/02/25 08:07:34;;;;;;;;;;;;;;;17.88;45.53;100945.63;4916978;28;97928;-63
2022/02/25 08:10:00;;;;;;;;;;;;;;;18.00;45.52;100941.53;4915195;28;126882;-67
2022/02/25 08:12:26;;;;;;;;;;;;;;;18.43;45.30;100941.97;4934162;28;120177;-69
2022/02/25 08:14:53;;;;;;;;;;;;;;;19.01;44.48;100948.50;4934042;28;125977;-63
2022/02/25 08:17:19;;;;;;;;;;;;;;;19.47;44.24;100934.41;4930901;28;97785;-63
2022/02/25 08:19:45;;;;;;;;;;;;;;;20.11;43.91;100939.44;4914791;28;114937;-67
2022/02/25 08:22:11;;;;;;;;;;;;;;;20.79;42.99;100942.53;4919734;28;122727;-63
2022/02/25 08:24:37;;;;;;;;;;;;;;;21.40;42.58;100940.44;4935810;28;127409;-67
2022/02/25 08:27:04;;;;;;;;;;;;;;;22.03;41.99;100946.91;4926644;28;121753;-63
2022/02/25 08:29:30;;;;;;;;;;;;;;;22.52;41.84;100940.94;4934547;28;98934;-67
2022/02/25 08:31:56;;;;;;;;;;;;;;;22.96;41.88;100950.38;4934233;28;127443;-67
2022/02/25 08:34:22;;;;;;;;;;;;;;;23.44;41.63;100942.56;4936181;28;98299;-67
2022/02/25 08:36:47;;;;;;;;;;;;;;;24.04;41.42;100946.44;4935569;28;98107;-69
2022/02/25 08:39:13;;;;;;;;;;;;;;;24.73;41.01;100944.56;4904144;28;100778;-67
2022/02/25 08:41:40;;;;;;;;;;;;;;;25.41;40.40;100940.81;4916923;28;98341;-67
2022/02/25 08:44:06;;;;;;;;;;;;;;;26.17;39.97;100949.69;4916802;28;98157;-61
2022/02/25 08:46:35;;;;;;;;;;;;;;;27.03;39.19;100955.00;4916090;28;103303;-66
2022/02/25 08:49:01;;;;;;;;;;;;;;;28.02;38.05;100955.09;4916303;28;98412;-61
2022/02/25 08:51:27;;;;;;;;;;;;;;;27.75;39.17;100959.84;4914948;28;98565;-64
2022/02/25 08:53:53;;;;;;;;;;;;;;;28.60;38.20;100968.53;4917220;28;98026;-65
2022/02/25 08:56:19;;;;;;;;;;;;;;;29.50;37.49;100961.91;4915635;28;123659;-65
2022/02/25 08:58:45;;;;;;;;;;;;;;;30.03;36.88;100955.19;4920555;28;128002;-65
2022/02/25 09:01:11;;;;;;;;;;;;;;;30.57;37.10;100965.34;4916175;28;98428;-62
2022/02/25 09:03:40;;;;;;;;;;;;;;;30.56;37.53;100962.97;4915174;28;127702;-65
2022/02/25 09:06:06;;;;;;;;;;;;;;;31.66;36.16;100964.34;4899392;28;97976;-64
2022/02/25 09:08:32;;;;;;;;;;;;;;;32.42;35.76;100963.81;4928542;28;127990;-65
2022/02/25 09:10:58;;;;;;;;;;;;;;;33.21;34.88;100960.59;4931592;28;121081;-62
2022/02/25 09:13:24;;;;;;;;;;;;;;;33.92;34.30;100959.94;4915718;28;127035;-66
2022/02/25 09:15:50;;;;;;;;;;;;;;;34.79;33.90;100968.91;4917052;28;98461;-65
2022/02/25 09:18:15;;;;;;;;;;;;;;;34.18;34.90;100954.88;4921724;28;115842;-63
2022/02/25 09:20:43;;;;;;;;;;;;;;;35.32;33.50;100967.31;4927555;28;109041;-67
2022/02/25 09:23:09;;;;;;;;;;;;;;;35.63;33.34;100959.59;4916830;28;98283;-63
2022/02/25 09:25:35;;;;;;;;;;;;;;;36.48;32.32;100973.22;4925697;28;121118;-63
2022/02/25 09:28:01;;;;;;;;;;;;;;;36.63;31.93;100973.69;4902799;28;125964;-63
2022/02/25 09:30:27;;;;;;;;;;;;;;;35.53;33.38;100954.16;4916517;28;128394;-63
2022/02/25 09:32:52;;;;;;;;;;;;;;;34.81;33.91;100963.66;4938165;28;127222;-63
2022/02/25 09:35:18;;;;;;;;;;;;;;;34.41;33.87;100959.81;4935049;28;123122;-63
2022/02/25 09:37:45;;;;;;;;;;;;;;;34.32;33.70;100949.13;4928428;28;126717;-63
2022/02/25 09:40:12;;;;;;;;;;;;;;;34.20;33.31;100946.88;4919632;28;98687;-66
2022/02/25 09:42:39;;;;;;;;;;;;;;;33.96;33.54;100948.75;4919676;28;97933;-66
2022/02/25 09:45:06;;;;;;;;;;;;;;;34.65;33.00;100957.91;4933474;28;118866;-63
2022/02/25 09:47:35;;;;;;;;;;;;;;;35.02;32.59;100962.59;4929500;28;99501;-63
2022/02/25 09:50:04;;;;;;;;;;;;;;;33.84;33.95;100954.84;4918804;28;99135;-66
2022/02/25 09:52:30;;;;;;;;;;;;;;;34.18;32.69;100952.09;4929016;28;113415;-62
2022/02/25 09:54:56;;;;;;;;;;;;;;;34.14;32.81;100965.31;4926904;28;122624;-63
2022/02/25 09:57:22;;;;;;;;;;;;;;;35.27;31.60;100953.00;4923519;28;126443;-66
2022/02/25 09:59:48;;;;;;;;;;;;;;;36.14;30.81;100949.03;4937270;28;128479;-63
2022/02/25 10:02:14;;;;;;;;;;;;;;;34.57;32.11;100948.03;4918448;28;126821;-66
2022/02/25 10:04:39;;;;;;;;;;;;;;;34.65;32.23;100952.31;4918212;28;120699;-62
2022/02/25 10:07:25;;;;;;;;;;;;;;;36.86;29.50;100955.91;4921475;28;128030;-62
2022/02/25 10:09:52;;;;;;;;;;;;;;;36.25;30.38;100962.06;4938139;28;98233;-63
2022/02/25 10:12:18;;;;;;;;;;;;;;;34.54;31.98;100946.06;4937211;28;98566;-64
2022/02/25 10:14:46;;;;;;;;;;;;;;;33.57;32.42;100954.72;4905992;28;98356;-64
2022/02/25 10:17:15;;;;;;;;;;;;;;;32.38;33.55;100954.63;4899411;28;126177;-67
2022/02/25 10:19:42;;;;;;;;;;;;;;;36.48;28.87;100956.38;4918436;28;113134;-64
2022/02/25 10:22:12;;;;;;;;;;;;;;;34.74;30.36;100969.38;4919804;28;98337;-68
2022/02/25 10:24:48;;;;;;;;;;;;;;;32.60;32.36;100955.34;4938517;28;98129;-63
2022/02/25 10:27:33;;;;;;;;;;;;;;;31.29;33.35;100946.06;4915053;28;99096;-63
2022/02/25 10:30:05;;;;;;;;;;;;;;;32.53;31.38;100944.22;4917461;28;98618;-67
2022/02/25 10:32:42;;;;;;;;;;;;;;;30.79;33.00;100954.34;4924398;28;98397;-63
2022/02/25 10:35:41;;;;;;;;;;;;;;;29.78;33.45;100964.13;4918134;28;110191;-63
2022/02/25 10:38:17;;;;;;;;;;;;;;;30.09;32.57;100948.03;4931090;28;98652;-67
2022/02/25 10:40:48;;;;;;;;;;;;;;;30.96;31.68;100950.78;4937637;28;98967;-63
2022/02/25 10:43:17;;;;;;;;;;;;;;;34.15;28.49;100950.94;4924676;28;118189;-67
2022/02/25 10:45:44;;;;;;;;;;;;;;;31.44;31.56;100942.13;4917439;28;97916;-67
2022/02/25 10:48:17;;;;;;;;;;;;;;;31.45;31.40;100949.25;4922094;28;123468;-63
2022/02/25 10:50:51;;;;;;;;;;;;;;;33.08;28.98;100948.31;4917567;28;98534;-68
2022/02/25 10:53:18;;;;;;;;;;;;;;;32.50;29.88;100947.81;4936052;28;110747;-68
2022/02/25 10:55:50;;;;;;;;;;;;;;;31.74;30.46;100952.00;4918930;28;98188;-63
2022/02/25 10:58:16;;;;;;;;;;;;;;;32.09;29.98;100961.53;4924838;28;98051;-67
2022/02/25 11:00:42;;;;;;;;;;;;;;;30.35;32.18;100951.78;4899119;28;125265;-63
2022/02/25 11:03:13;;;;;;;;;;;;;;;29.22;32.67;100945.03;4906190;28;126901;-67
2022/02/25 11:05:42;;;;;;;;;;;;;;;28.58;33.11;100948.72;4901075;28;98118;-63
2022/02/25 11:08:08;;;;;;;;;;;;;;;27.82;33.50;100935.00;4929965;28;98027;-63
2022/02/25 11:10:34;;;;;;;;;;;;;;;27.12;34.12;100943.75;4930389;28;127617;-63
2022/02/25 11:13:04;;;;;;;;;;;;;;;26.38;34.46;100947.41;4917707;28;115219;-70
2022/02/25 11:15:35;;;;;;;;;;;;;;;25.78;34.72;100938.59;4915826;28;98096;-63
2022/02/25 11:18:01;;;;;;;;;;;;;;;25.60;34.79;100946.44;4918923;28;98241;-63
2022/02/25 11:20:33;;;;;;;;;;;;;;;25.47;34.59;100939.41;4931568;28;124677;-67
2022/02/25 11:23:00;;;;;;;;;;;;;;;25.03;34.90;100936.69;4917565;28;98597;-68
2022/02/25 11:25:25;;;;;;;;;;;;;;;24.83;35.28;100941.25;4917582;28;98558;-63
2022/02/25 11:27:51;;;;;;;;;;;;;;;26.73;32.99;100945.75;4926520;28;129098;-63
2022/02/25 11:30:38;;;;;;;;;;;;;;;26.03;33.99;100947.44;4917831;28;115267;-68
2022/02/25 11:33:09;;;;;;;;;;;;;;;27.12;32.99;100944.56;4910709;28;99212;-67
2022/02/25 11:35:38;;;;;;;;;;;;;;;28.22;32.29;100935.53;4935639;28;115404;-63
2022/02/25 11:38:09;;;;;;;;;;;;;;;28.11;32.28;100933.44;4925867;28;98156;-68
2022/02/25 11:40:58;;;;;;;;;;;;;;;28.18;32.76;100943.00;4915727;28;125162;-68
2022/02/25 11:43:45;;;;;;;;;;;;;;;29.10;31.95;100943.34;4917953;28;98103;-68
2022/02/25 11:46:36;;;;;;;;;;;;;;;28.52;32.72;100922.50;4928289;28;97807;-67
2022/02/25 11:49:23;;;;;;;;;;;;;;;28.01;33.80;100933.28;4923432;28;99195;-62
2022/02/25 11:51:52;;;;;;;;;;;;;;;27.65;34.05;100928.00;4936057;28;98214;-68
2022/02/25 11:54:24;;;;;;;;;;;;;;;27.96;33.55;100917.81;4923997;28;97948;-68
2022/02/25 11:56:59;;;;;;;;;;;;;;;27.52;33.98;100921.09;4916377;28;97753;-62
2022/02/25 11:59:33;;;;;;;;;;;;;;;27.30;34.19;100921.91;4927913;28;98216;-62
2022/02/25 12:02:05;;;;;;;;;;;;;;;27.46;34.07;100924.53;4933760;28;100022;-67
2022/02/25 12:04:41;;;;;;;;;;;;;;;27.37;34.12;100919.25;4917696;28;98065;-63
2022/02/25 12:07:07;;;;;;;;;;;;;;;26.88;34.66;100923.53;4921191;28;97878;-68
2022/02/25 12:09:48;;;;;;;;;;;;;;;27.10;34.32;100921.97;4935836;28;98522;-63
2022/02/25 12:12:23;;;;;;;;;;;;;;;27.15;34.28;100909.81;4918075;28;98979;-69
2022/02/25 12:15:01;;;;;;;;;;;;;;;26.99;34.55;100904.38;4916628;28;98291;-68
2022/02/25 12:17:55;;;;;;;;;;;;;;;26.64;34.72;100905.31;4923729;28;97870;-63
2022/02/25 12:20:49;;;;;;;;;;;;;;;26.57;34.50;100896.91;4904390;28;98486;-63
2022/02/25 12:23:21;;;;;;;;;;;;;;;26.47;34.43;100891.16;4914366;28;98408;-69
2022/02/25 12:25:55;;;;;;;;;;;;;;;26.09;34.90;100909.28;4917270;28;98581;-63
2022/02/25 12:28:33;;;;;;;;;;;;;;;25.67;35.13;100909.94;4929782;28;98433;-68
2022/02/25 12:31:06;;;;;;;;;;;;;;;25.39;35.19;100905.34;4922879;28;98977;-62
2022/02/25 12:33:42;;;;;;;;;;;;;;;25.16;35.35;100907.91;4935070;28;98351;-68
2022/02/25 12:36:14;;;;;;;;;;;;;;;25.00;35.50;100909.84;4936221;28;98472;-63
2022/02/25 12:38:40;;;;;;;;;;;;;;;24.98;35.30;100909.38;4920887;28;98648;-68